Time;durP1;ratioP1;P1;durP2;ratioP2;P2;SDS_P1;SDS_P2;PMS_P1;PMS_P2;Temp;Humidity;BMP_temperature;BMP_pressure;BME280_temperature;BME280_humidity;BME280_pressure;Samples;Min_cycle;Max_cycle;Signal;HPM_P1;HPM_P2
2020/12/31 00:01:35;;;;;;;5.37;3.30;;;5.20;1.00;;;;;;5075608;28;20245;-64
2020/12/31 00:04:01;;;;;;;6.20;2.77;;;5.10;1.00;;;;;;5075549;28;20172;-66
2020/12/31 00:06:26;;;;;;;5.70;4.20;;;5.20;1.00;;;;;;5074372;28;20175;-66
2020/12/31 00:08:52;;;;;;;8.87;3.27;;;5.10;1.00;;;;;;5075301;28;20237;-66
2020/12/31 00:11:17;;;;;;;4.10;3.20;;;5.30;1.00;;;;;;5075279;28;20196;-66
2020/12/31 00:13:43;;;;;;;4.73;3.20;;;5.10;1.00;;;;;;5075315;28;20251;-66
2020/12/31 00:16:09;;;;;;;5.07;3.07;;;5.20;1.00;;;;;;5075355;28;20164;-66
2020/12/31 00:18:34;;;;;;;9.67;3.97;;;5.10;1.00;;;;;;5075424;28;20664;-66
2020/12/31 00:21:00;;;;;;;4.47;3.60;;;5.30;1.00;;;;;;5075413;28;20709;-66
2020/12/31 00:23:25;;;;;;;6.23;3.73;;;5.20;1.00;;;;;;5075165;28;20268;-67
2020/12/31 00:25:53;;;;;;;4.47;2.90;;;5.10;1.00;;;;;;5075093;28;20583;-66
2020/12/31 00:28:19;;;;;;;4.10;3.42;;;5.20;1.00;;;;;;5075249;28;20233;-66
2020/12/31 00:30:45;;;;;;;5.50;3.83;;;5.20;1.00;;;;;;5075186;28;20195;-66
2020/12/31 00:33:13;;;;;;;5.78;3.53;;;5.00;1.00;;;;;;5075279;28;20237;-66
2020/12/31 00:35:38;;;;;;;6.05;3.55;;;4.90;1.00;;;;;;5074919;28;20217;-66
2020/12/31 00:38:04;;;;;;;5.90;3.60;;;5.10;1.00;;;;;;5075154;28;20169;-67
2020/12/31 00:40:30;;;;;;;4.63;3.83;;;5.00;1.00;;;;;;5074817;28;20188;-67
2020/12/31 00:42:55;;;;;;;5.20;3.40;;;5.10;13.90;;;;;;5075863;28;20175;-66
2020/12/31 00:45:21;;;;;;;5.80;4.00;;;5.10;1.00;;;;;;5077064;28;20175;-66
2020/12/31 00:47:46;;;;;;;8.47;3.63;;;5.10;1.00;;;;;;5076645;28;20251;-67
2020/12/31 00:50:12;;;;;;;7.20;4.60;;;5.30;11.60;;;;;;5076243;28;20307;-66
2020/12/31 00:52:37;;;;;;;6.70;4.30;;;5.30;5.50;;;;;;5076242;28;20200;-65
2020/12/31 00:55:04;;;;;;;6.17;3.73;;;5.20;1.00;;;;;;5076772;28;20179;-66
2020/12/31 00:57:29;;;;;;;9.68;4.40;;;5.20;1.00;;;;;;5075809;28;20207;-66
2020/12/31 00:59:55;;;;;;;9.03;4.17;;;5.20;6.00;;;;;;5074632;28;20215;-66
2020/12/31 01:02:20;;;;;;;7.83;4.30;;;5.40;1.00;;;;;;5074889;28;20172;-66
2020/12/31 01:04:46;;;;;;;5.33;3.70;;;5.20;1.00;;;;;;5074323;28;20587;-66
2020/12/31 01:07:18;;;;;;;7.13;4.50;;;5.20;11.00;;;;;;5074584;28;20664;-67
2020/12/31 01:09:43;;;;;;;8.63;4.65;;;5.30;14.60;;;;;;5074171;28;20680;-66
2020/12/31 01:12:10;;;;;;;5.50;4.50;;;5.30;1.00;;;;;;5074143;28;20199;-66
2020/12/31 01:14:36;;;;;;;6.93;4.03;;;5.30;1.00;;;;;;5074090;28;20581;-67
2020/12/31 01:17:02;;;;;;;6.90;4.53;;;5.00;1.00;;;;;;5074048;28;20199;-66
2020/12/31 01:19:27;;;;;;;6.50;4.93;;;5.20;27.60;;;;;;5073936;28;20180;-67
2020/12/31 01:21:53;;;;;;;5.90;3.80;;;5.30;17.50;;;;;;5074530;28;20165;-66
2020/12/31 01:24:18;;;;;;;5.53;4.27;;;5.30;5.00;;;;;;5073890;28;20536;-67
2020/12/31 01:26:44;;;;;;;6.07;4.07;;;5.30;1.00;;;;;;5073978;28;20203;-66
2020/12/31 01:29:09;;;;;;;4.83;3.70;;;5.20;1.00;;;;;;5074022;28;20278;-65
2020/12/31 01:31:35;;;;;;;5.73;3.90;;;5.30;1.00;;;;;;5073779;28;20196;-65
2020/12/31 01:34:00;;;;;;;6.30;4.57;;;5.30;1.00;;;;;;5073774;28;20164;-66
2020/12/31 01:36:26;;;;;;;6.37;4.70;;;5.40;1.00;;;;;;5073894;28;20162;-66
2020/12/31 01:38:52;;;;;;;5.83;3.90;;;5.20;1.00;;;;;;5073621;28;20192;-66
2020/12/31 01:41:25;;;;;;;8.20;4.20;;;5.00;1.00;;;;;;5073640;28;20239;-66
2020/12/31 01:44:10;;;;;;;11.48;4.47;;;5.20;9.60;;;;;;5073459;28;20172;-65
2020/12/31 01:46:38;;;;;;;5.72;4.32;;;5.20;1.00;;;;;;5073748;28;20217;-65
2020/12/31 01:49:06;;;;;;;5.82;4.20;;;5.20;1.00;;;;;;5073239;28;20298;-65
2020/12/31 01:51:34;;;;;;;6.75;3.78;;;5.40;1.00;;;;;;5073653;28;20275;-65
2020/12/31 01:54:00;;;;;;;7.05;4.25;;;5.40;1.00;;;;;;5073342;28;20172;-65
2020/12/31 01:56:30;;;;;;;7.53;4.03;;;5.40;1.00;;;;;;5073380;28;20168;-66
2020/12/31 01:58:57;;;;;;;5.20;3.78;;;5.40;1.00;;;;;;5073562;28;20595;-65
2020/12/31 02:01:23;;;;;;;10.73;6.72;;;5.40;1.00;;;;;;5073561;28;20172;-66
2020/12/31 02:03:54;;;;;;;5.60;3.72;;;5.50;1.00;;;;;;5073184;28;20219;-65
2020/12/31 02:06:21;;;;;;;5.05;3.58;;;5.40;1.00;;;;;;5073263;28;20172;-66
2020/12/31 02:08:47;;;;;;;5.68;3.60;;;5.50;1.00;;;;;;5073345;28;20196;-66
2020/12/31 02:11:17;;;;;;;4.15;3.70;;;5.50;1.00;;;;;;5073075;28;20212;-66
2020/12/31 02:13:43;;;;;;;5.70;4.10;;;5.60;1.00;;;;;;5073024;28;20195;-66
2020/12/31 02:16:19;;;;;;;8.48;5.05;;;5.50;1.00;;;;;;5073106;28;20168;-66
2020/12/31 02:18:51;;;;;;;4.65;3.40;;;5.50;1.00;;;;;;5073203;28;20191;-66
2020/12/31 02:21:18;;;;;;;4.75;3.65;;;5.50;1.00;;;;;;5073022;28;20203;-66
2020/12/31 02:23:44;;;;;;;8.18;3.50;;;5.70;1.00;;;;;;5073024;28;20176;-66
2020/12/31 02:26:09;;;;;;;8.50;3.83;;;5.60;1.00;;;;;;5073070;28;20209;-66
2020/12/31 02:28:35;;;;;;;4.10;2.97;;;5.60;1.00;;;;;;5072960;28;20194;-66
2020/12/31 02:31:00;;;;;;;4.20;3.77;;;5.50;1.00;;;;;;5072162;28;20198;-66
2020/12/31 02:33:26;;;;;;;5.37;4.43;;;5.30;1.00;;;;;;5072894;28;20172;-66
2020/12/31 02:35:52;;;;;;;5.53;3.63;;;5.40;1.00;;;;;;5072956;28;20171;-66
2020/12/31 02:38:17;;;;;;;5.60;3.70;;;5.50;1.00;;;;;;5072807;28;20199;-66
2020/12/31 02:40:43;;;;;;;5.20;3.30;;;5.60;1.00;;;;;;5072886;28;20247;-66
2020/12/31 02:43:08;;;;;;;4.60;3.43;;;5.60;1.00;;;;;;5072895;28;20168;-66
2020/12/31 02:45:34;;;;;;;4.77;3.60;;;5.60;1.00;;;;;;5072793;28;20217;-66
2020/12/31 02:47:59;;;;;;;6.67;4.00;;;5.40;1.00;;;;;;5073140;28;20176;-66
2020/12/31 02:50:25;;;;;;;3.80;2.83;;;5.40;1.00;;;;;;5073136;28;20208;-66
2020/12/31 02:52:50;;;;;;;5.47;3.80;;;5.30;1.00;;;;;;5072805;28;20179;-66
2020/12/31 02:55:16;;;;;;;4.73;3.27;;;5.20;1.00;;;;;;5071599;28;20199;-66
2020/12/31 02:57:41;;;;;;;5.17;3.77;;;5.40;1.00;;;;;;5072762;28;20679;-66
2020/12/31 03:00:07;;;;;;;5.37;3.80;;;5.10;1.00;;;;;;5072610;28;20738;-65
2020/12/31 03:02:32;;;;;;;4.87;3.80;;;5.00;1.00;;;;;;5072646;28;20160;-66
2020/12/31 03:04:58;;;;;;;8.80;4.33;;;4.90;57.50;;;;;;5072623;28;20168;-66
2020/12/31 03:07:24;;;;;;;4.40;3.53;;;5.10;20.80;;;;;;5072543;28;20168;-66
2020/12/31 03:09:50;;;;;;;6.93;3.60;;;4.90;33.10;;;;;;5072846;28;20195;-66
2020/12/31 03:12:15;;;;;;;7.60;4.05;;;4.90;90.40;;;;;;5072814;28;20223;-66
2020/12/31 03:14:41;;;;;;;6.93;3.67;;;5.10;99.30;;;;;;5072527;28;20168;-65
2020/12/31 03:17:06;;;;;;;4.53;3.80;;;4.90;99.90;;;;;;5072444;28;20175;-64
2020/12/31 03:19:32;;;;;;;5.67;3.57;;;5.00;99.90;;;;;;5072312;28;20200;-66
2020/12/31 03:21:57;;;;;;;5.97;4.20;;;4.80;99.90;;;;;;5072728;28;20251;-66
2020/12/31 03:24:23;;;;;;;7.47;3.43;;;4.80;99.90;;;;;;5072409;28;20259;-66
2020/12/31 03:26:48;;;;;;;4.57;3.73;;;5.10;99.90;;;;;;5072476;28;20608;-66
2020/12/31 03:29:14;;;;;;;4.30;3.70;;;5.20;99.90;;;;;;5072641;28;20672;-66
2020/12/31 03:31:39;;;;;;;5.73;3.77;;;5.20;99.90;;;;;;5072290;28;20199;-66
2020/12/31 03:34:05;;;;;;;4.90;3.80;;;5.20;99.90;;;;;;5072637;28;20255;-66
2020/12/31 03:36:31;;;;;;;4.23;3.60;;;5.00;99.90;;;;;;5072358;28;20255;-65
2020/12/31 03:38:57;;;;;;;5.00;3.70;;;4.90;99.90;;;;;;5072228;28;20589;-66
2020/12/31 03:41:23;;;;;;;7.55;3.80;;;4.70;99.90;;;;;;5073835;28;20185;-65
2020/12/31 03:43:48;;;;;;;5.63;4.00;;;4.70;99.90;;;;;;5075965;28;20173;-65
2020/12/31 03:46:14;;;;;;;7.43;3.90;;;4.80;99.90;;;;;;5075867;28;20388;-66
2020/12/31 03:48:39;;;;;;;6.07;4.03;;;4.80;99.90;;;;;;5076263;28;20207;-66
2020/12/31 03:51:05;;;;;;;5.33;3.63;;;4.80;99.90;;;;;;5076187;28;20234;-66
2020/12/31 03:53:30;;;;;;;7.07;4.87;;;4.80;99.90;;;;;;5075766;28;20506;-66
2020/12/31 03:55:56;;;;;;;4.70;3.30;;;4.90;99.90;;;;;;5075698;28;20693;-66
2020/12/31 03:58:21;;;;;;;3.83;3.30;;;4.90;99.90;;;;;;5075577;28;20255;-65
2020/12/31 04:00:47;;;;;;;6.50;3.87;;;4.90;99.90;;;;;;5075627;28;20578;-66
2020/12/31 04:03:12;;;;;;;4.60;3.93;;;5.00;99.90;;;;;;5075725;28;20199;-66
2020/12/31 04:05:38;;;;;;;8.87;4.37;;;4.80;99.90;;;;;;5075890;28;20172;-66
2020/12/31 04:08:03;;;;;;;5.87;3.67;;;4.80;99.90;;;;;;5075560;28;20172;-65
2020/12/31 04:10:29;;;;;;;4.70;3.50;;;4.70;99.90;;;;;;5075343;28;20673;-65
2020/12/31 04:12:55;;;;;;;6.20;4.13;;;4.60;99.90;;;;;;5075386;28;20174;-65
2020/12/31 04:15:20;;;;;;;7.97;4.27;;;4.80;99.90;;;;;;5075734;28;20168;-65
2020/12/31 04:17:46;;;;;;;3.43;2.90;;;4.70;99.90;;;;;;5075319;28;20164;-65
2020/12/31 04:20:11;;;;;;;7.17;4.07;;;4.70;99.90;;;;;;5075181;28;20188;-65
2020/12/31 04:22:37;;;;;;;5.00;3.60;;;4.60;99.90;;;;;;5075249;28;20539;-66
2020/12/31 04:25:02;;;;;;;5.57;4.10;;;4.80;99.90;;;;;;5073905;28;20222;-66
2020/12/31 04:27:28;;;;;;;10.27;4.03;;;4.80;99.90;;;;;;5074246;28;20179;-66
2020/12/31 04:29:54;;;;;;;4.73;3.73;;;4.90;99.90;;;;;;5074986;28;20639;-66
2020/12/31 04:32:20;;;;;;;4.70;3.78;;;4.80;99.90;;;;;;5075038;28;20274;-65
2020/12/31 04:34:45;;;;;;;5.27;4.13;;;4.90;99.90;;;;;;5075089;28;20166;-65
2020/12/31 04:37:11;;;;;;;4.30;3.47;;;4.90;99.90;;;;;;5074958;28;20164;-65
2020/12/31 04:39:36;;;;;;;6.13;3.77;;;5.10;99.90;;;;;;5074997;28;20180;-65
2020/12/31 04:42:02;;;;;;;13.30;4.30;;;5.10;99.90;;;;;;5074853;28;20255;-65
2020/12/31 04:44:29;;;;;;;5.30;4.40;;;5.10;99.90;;;;;;5074809;28;20168;-65
2020/12/31 04:46:57;;;;;;;5.55;3.80;;;5.20;99.90;;;;;;5074744;28;20168;-66
2020/12/31 04:49:28;;;;;;;6.93;4.45;;;5.10;99.90;;;;;;5074474;28;20215;-66
2020/12/31 04:51:55;;;;;;;6.15;3.72;;;5.00;99.90;;;;;;5074567;28;20699;-66
2020/12/31 04:54:21;;;;;;;3.83;3.42;;;4.90;99.90;;;;;;5073957;28;20653;-65
2020/12/31 04:56:47;;;;;;;5.78;4.80;;;4.80;99.90;;;;;;5074398;28;20176;-66
2020/12/31 04:59:13;;;;;;;3.30;3.00;;;4.80;99.90;;;;;;5074733;28;20686;-66
2020/12/31 05:01:43;;;;;;;4.53;3.50;;;4.80;99.90;;;;;;5074999;28;20472;-66
2020/12/31 05:04:09;;;;;;;5.82;3.05;;;4.70;99.90;;;;;;5074371;28;20168;-66
2020/12/31 05:06:36;;;;;;;7.00;3.53;;;4.80;99.90;;;;;;5074337;28;20171;-66
2020/12/31 05:09:18;;;;;;;4.07;3.35;;;4.80;99.90;;;;;;5074493;28;20199;-66
2020/12/31 05:11:51;;;;;;;4.55;3.33;;;4.70;99.90;;;;;;5074148;28;20191;-65
2020/12/31 05:14:31;;;;;;;3.65;2.85;;;4.80;99.90;;;;;;5074472;28;20547;-65
2020/12/31 05:17:12;;;;;;;4.43;2.88;;;4.80;99.90;;;;;;5074178;28;20194;-66
2020/12/31 05:19:38;;;;;;;4.30;3.13;;;4.80;99.90;;;;;;5074251;28;20271;-66
2020/12/31 05:22:12;;;;;;;3.67;2.57;;;4.90;99.90;;;;;;5074071;28;20255;-65
2020/12/31 05:24:42;;;;;;;4.85;3.60;;;4.80;99.90;;;;;;5074001;28;20186;-65
2020/12/31 05:27:28;;;;;;;4.30;3.67;;;4.70;99.90;;;;;;5074319;28;20157;-66
2020/12/31 05:30:08;;;;;;;4.35;2.80;;;4.60;99.90;;;;;;5073887;28;20184;-65
2020/12/31 05:32:36;;;;;;;4.38;2.67;;;4.60;99.90;;;;;;5074081;28;20290;-66
2020/12/31 05:35:13;;;;;;;5.00;3.42;;;4.60;99.90;;;;;;5073813;28;20203;-66
2020/12/31 05:37:38;;;;;;;4.22;3.53;;;4.70;99.90;;;;;;5074138;28;20152;-66
2020/12/31 05:40:09;;;;;;;3.70;2.77;;;4.60;99.90;;;;;;5074081;28;20211;-65
2020/12/31 05:42:36;;;;;;;3.92;3.03;;;4.60;99.90;;;;;;5073740;28;20161;-66
2020/12/31 05:45:04;;;;;;;3.42;3.08;;;4.70;99.90;;;;;;5073977;28;20591;-66
2020/12/31 05:47:34;;;;;;;5.63;3.70;;;4.70;99.90;;;;;;5073833;28;20179;-65
2020/12/31 05:50:00;;;;;;;2.90;2.30;;;4.70;99.90;;;;;;5073410;28;20218;-66
2020/12/31 05:52:37;;;;;;;4.20;3.40;;;4.50;99.90;;;;;;5073540;28;20192;-66
2020/12/31 05:55:04;;;;;;;4.53;3.53;;;4.50;99.90;;;;;;5074940;28;20493;-66
2020/12/31 05:57:44;;;;;;;5.88;3.60;;;4.50;1.00;;;;;;5073650;28;20156;-66
2020/12/31 06:00:20;;;;;;;4.75;3.30;;;4.60;1.00;;;;;;5073500;28;20184;-66
2020/12/31 06:02:51;;;;;;;3.75;2.95;;;4.50;99.90;;;;;;5073957;28;20160;-66
2020/12/31 06:05:18;;;;;;;4.70;3.40;;;4.40;1.00;;;;;;5072707;28;20160;-66
2020/12/31 06:07:51;;;;;;;4.00;3.10;;;4.50;1.00;;;;;;5073277;28;20168;-65
2020/12/31 06:10:25;;;;;;;4.43;3.42;;;4.60;1.00;;;;;;5073500;28;20249;-66
2020/12/31 06:13:02;;;;;;;5.43;4.07;;;4.40;1.00;;;;;;5073262;28;20263;-65
2020/12/31 06:15:32;;;;;;;4.25;3.15;;;4.10;1.00;;;;;;5073220;28;20163;-66
2020/12/31 06:17:59;;;;;;;3.70;3.15;;;4.30;1.00;;;;;;5073049;28;20641;-66
2020/12/31 06:20:26;;;;;;;7.05;3.13;;;4.40;1.00;;;;;;5073004;28;20196;-66
2020/12/31 06:23:04;;;;;;;4.82;2.80;;;4.60;1.00;;;;;;5073096;28;20180;-66
2020/12/31 06:25:40;;;;;;;6.15;3.65;;;4.50;99.90;;;;;;5073217;28;20190;-66
2020/12/31 06:28:08;;;;;;;3.72;2.83;;;4.50;99.90;;;;;;5073311;28;20180;-66
2020/12/31 06:30:35;;;;;;;4.57;3.22;;;4.30;99.90;;;;;;5073156;28;20557;-66
2020/12/31 06:33:07;;;;;;;4.13;3.00;;;4.50;1.00;;;;;;5073989;28;20180;-65
2020/12/31 06:35:34;;;;;;;4.00;2.78;;;4.30;99.90;;;;;;5073183;28;20180;-66
2020/12/31 06:37:59;;;;;;;4.93;2.83;;;4.30;99.90;;;;;;5073104;28;20171;-66
2020/12/31 06:40:30;;;;;;;3.90;3.27;;;4.30;99.90;;;;;;5072772;28;20543;-66
2020/12/31 06:43:14;;;;;;;4.10;3.40;;;4.40;1.00;;;;;;5072783;28;20168;-66
2020/12/31 06:45:43;;;;;;;4.38;2.97;;;4.40;1.00;;;;;;5072785;28;20156;-66
2020/12/31 06:48:29;;;;;;;5.40;3.95;;;4.50;99.90;;;;;;5072655;28;20172;-66
2020/12/31 06:51:07;;;;;;;4.88;3.38;;;4.40;99.90;;;;;;5065370;28;20641;-66
2020/12/31 06:53:47;;;;;;;7.75;4.68;;;4.40;99.90;;;;;;5073023;28;20148;-66
2020/12/31 06:56:13;;;;;;;5.30;4.22;;;4.40;99.90;;;;;;5072722;28;20238;-66
2020/12/31 06:58:40;;;;;;;7.00;3.95;;;4.30;99.90;;;;;;5072574;28;20215;-66
2020/12/31 07:01:28;;;;;;;10.02;4.20;;;4.40;99.90;;;;;;5072631;28;20180;-66
2020/12/31 07:03:55;;;;;;;5.30;4.18;;;4.50;99.90;;;;;;5072660;28;20226;-66
2020/12/31 07:06:21;;;;;;;6.72;3.83;;;4.40;99.90;;;;;;5072661;28;20183;-65
2020/12/31 07:08:47;;;;;;;4.23;3.33;;;4.30;99.90;;;;;;5072753;28;20192;-65
2020/12/31 07:11:12;;;;;;;4.63;3.90;;;4.50;99.90;;;;;;5072431;28;20203;-66
2020/12/31 07:13:40;;;;;;;3.47;3.07;;;4.50;99.90;;;;;;5073133;28;20441;-65
2020/12/31 07:16:06;;;;;;;5.15;3.75;;;4.50;99.90;;;;;;5073641;28;20195;-66
2020/12/31 07:18:34;;;;;;;4.60;3.72;;;4.40;99.90;;;;;;5076280;28;20212;-65
2020/12/31 07:21:00;;;;;;;4.07;3.63;;;4.40;99.90;;;;;;5076376;28;20255;-65
2020/12/31 07:23:38;;;;;;;5.20;4.07;;;4.50;99.90;;;;;;5076438;28;20206;-65
2020/12/31 07:26:04;;;;;;;6.28;3.42;;;4.40;99.90;;;;;;5076437;28;20221;-65
2020/12/31 07:28:30;;;;;;;7.70;4.60;;;4.30;99.90;;;;;;5076378;28;20180;-65
2020/12/31 07:30:55;;;;;;;4.63;3.60;;;4.30;99.90;;;;;;5076383;28;20203;-65
2020/12/31 07:33:34;;;;;;;7.77;4.10;;;4.30;99.90;;;;;;5076024;28;20649;-65
2020/12/31 07:36:12;;;;;;;5.20;4.10;;;4.40;99.90;;;;;;5076091;28;20164;-66
2020/12/31 07:38:38;;;;;;;5.60;3.83;;;4.40;99.90;;;;;;5076253;28;20237;-65
2020/12/31 07:41:04;;;;;;;5.47;4.47;;;4.50;99.90;;;;;;5076173;28;20175;-65
2020/12/31 07:43:30;;;;;;;5.20;3.97;;;4.40;99.90;;;;;;5075796;28;20381;-65
2020/12/31 07:46:01;;;;;;;5.43;3.90;;;4.40;99.90;;;;;;5076125;28;20172;-66
2020/12/31 07:48:27;;;;;;;9.80;4.35;;;4.40;99.90;;;;;;5075695;28;20192;-66
2020/12/31 07:51:06;;;;;;;5.30;3.95;;;4.40;99.90;;;;;;5076228;28;20167;-65
2020/12/31 07:53:32;;;;;;;6.95;5.05;;;4.40;99.90;;;;;;5076026;28;20160;-65
2020/12/31 07:55:58;;;;;;;5.23;3.73;;;4.40;99.90;;;;;;5075874;28;20532;-66
2020/12/31 07:58:25;;;;;;;6.32;4.60;;;4.50;99.90;;;;;;5075474;28;20168;-65
2020/12/31 08:01:05;;;;;;;5.72;4.18;;;4.50;99.90;;;;;;5075782;28;20628;-65
2020/12/31 08:03:32;;;;;;;5.32;4.38;;;4.40;99.90;;;;;;5075316;28;20225;-66
2020/12/31 08:06:04;;;;;;;4.28;3.75;;;4.60;99.90;;;;;;5075341;28;20168;-65
2020/12/31 08:08:31;;;;;;;7.57;4.22;;;4.50;99.90;;;;;;5075829;28;20172;-66
2020/12/31 08:10:57;;;;;;;11.15;4.80;;;4.50;99.90;;;;;;5075371;28;20175;-65
2020/12/31 08:13:22;;;;;;;5.20;4.07;;;4.60;99.90;;;;;;5075378;28;20255;-65
2020/12/31 08:15:54;;;;;;;4.70;4.03;;;4.60;99.90;;;;;;5075159;28;20407;-66
2020/12/31 08:18:22;;;;;;;6.30;4.53;;;4.60;99.90;;;;;;5074992;28;20380;-65
2020/12/31 08:20:50;;;;;;;5.00;4.50;;;4.50;99.90;;;;;;5075285;28;20187;-65
2020/12/31 08:23:20;;;;;;;7.00;4.30;;;4.50;99.90;;;;;;5075089;28;20595;-65
2020/12/31 08:25:48;;;;;;;5.25;4.30;;;4.50;99.90;;;;;;5075098;28;20199;-65
2020/12/31 08:28:17;;;;;;;5.65;4.72;;;4.60;99.90;;;;;;5074143;28;20194;-65
2020/12/31 08:30:43;;;;;;;6.13;4.43;;;4.40;99.90;;;;;;5074910;28;20164;-65
2020/12/31 08:33:11;;;;;;;5.17;3.80;;;4.40;99.90;;;;;;5074986;28;20171;-65
2020/12/31 08:35:44;;;;;;;7.82;5.35;;;4.50;99.90;;;;;;5075346;28;20164;-65
2020/12/31 08:38:24;;;;;;;8.13;4.72;;;4.50;99.90;;;;;;5075023;28;20160;-65
2020/12/31 08:40:58;;;;;;;4.55;3.88;;;4.50;99.90;;;;;;5075033;28;20568;-65
2020/12/31 08:43:35;;;;;;;7.22;5.38;;;4.60;99.90;;;;;;5075012;28;20172;-66
2020/12/31 08:46:01;;;;;;;5.50;4.18;;;4.60;99.90;;;;;;5074692;28;20148;-65
2020/12/31 08:48:29;;;;;;;6.18;4.85;;;4.50;99.90;;;;;;5074616;28;20663;-65
2020/12/31 08:51:01;;;;;;;5.30;3.60;;;4.60;99.90;;;;;;5074719;28;20167;-65
2020/12/31 08:53:27;;;;;;;6.65;4.45;;;4.60;99.90;;;;;;5074691;28;20188;-65
2020/12/31 08:55:56;;;;;;;6.60;5.15;;;4.70;99.90;;;;;;5074435;28;20685;-65
2020/12/31 08:58:31;;;;;;;5.47;3.90;;;4.70;99.90;;;;;;5074401;28;20180;-65
2020/12/31 09:00:57;;;;;;;5.90;4.95;;;4.70;99.90;;;;;;5074449;28;20164;-65
2020/12/31 09:03:24;;;;;;;5.07;4.00;;;4.70;99.90;;;;;;5074683;28;20531;-65
2020/12/31 09:06:07;;;;;;;9.07;5.22;;;4.50;99.90;;;;;;5074305;28;20175;-65
2020/12/31 09:08:33;;;;;;;6.28;4.63;;;4.60;99.90;;;;;;5072927;28;20241;-65
2020/12/31 09:11:06;;;;;;;5.45;4.53;;;4.50;99.90;;;;;;5074442;28;20187;-66
2020/12/31 09:13:36;;;;;;;6.60;5.00;;;4.70;99.90;;;;;;5074777;28;20535;-66
2020/12/31 09:16:12;;;;;;;8.02;4.50;;;4.70;99.90;;;;;;5074435;28;20176;-66
2020/12/31 09:18:39;;;;;;;6.63;4.45;;;4.70;99.90;;;;;;5073950;28;20179;-65
2020/12/31 09:21:05;;;;;;;5.32;3.63;;;4.60;99.90;;;;;;5074005;28;20251;-65
2020/12/31 09:23:31;;;;;;;5.50;4.43;;;4.70;99.90;;;;;;5074252;28;20196;-65
2020/12/31 09:25:56;;;;;;;5.40;4.20;;;4.90;99.90;;;;;;5074034;28;20178;-65
2020/12/31 09:28:24;;;;;;;5.50;3.93;;;4.80;99.90;;;;;;5073748;28;20586;-65
2020/12/31 09:30:50;;;;;;;5.82;4.82;;;4.70;99.90;;;;;;5073777;28;20161;-66
2020/12/31 09:33:17;;;;;;;6.03;5.20;;;5.00;99.90;;;;;;5073420;28;20640;-66
2020/12/31 09:35:43;;;;;;;5.40;4.30;;;4.80;99.90;;;;;;5073648;28;20168;-66
2020/12/31 09:38:09;;;;;;;7.53;4.90;;;4.80;99.90;;;;;;5073937;28;20168;-66
2020/12/31 09:40:35;;;;;;;5.30;4.07;;;4.80;99.90;;;;;;5073177;28;20256;-66
2020/12/31 09:43:01;;;;;;;5.07;3.97;;;4.70;99.90;;;;;;5073566;28;20418;-66
2020/12/31 09:45:29;;;;;;;6.93;4.63;;;4.70;99.90;;;;;;5073818;28;20230;-66
2020/12/31 09:48:00;;;;;;;4.82;4.30;;;4.80;99.90;;;;;;5073393;28;20172;-66
2020/12/31 09:50:26;;;;;;;5.22;4.03;;;4.60;99.90;;;;;;5073488;28;20707;-66
2020/12/31 09:52:51;;;;;;;5.57;3.75;;;4.60;99.90;;;;;;5073656;28;20726;-66
2020/12/31 09:55:17;;;;;;;5.37;4.00;;;4.90;99.90;;;;;;5073373;28;20198;-67
2020/12/31 09:57:43;;;;;;;5.67;4.00;;;4.80;99.90;;;;;;5073235;28;20175;-68
2020/12/31 10:00:08;;;;;;;4.17;3.77;;;4.80;99.90;;;;;;5073216;28;20392;-66
2020/12/31 10:02:34;;;;;;;6.10;4.10;;;4.70;99.90;;;;;;5073211;28;20703;-67
2020/12/31 10:04:59;;;;;;;5.13;3.80;;;4.70;99.90;;;;;;5073357;28;20165;-68
2020/12/31 10:07:26;;;;;;;5.13;4.00;;;5.40;99.90;;;;;;5073188;28;20172;-68
2020/12/31 10:09:52;;;;;;;3.85;3.45;;;5.00;99.90;;;;;;5073130;28;20192;-67
2020/12/31 10:12:17;;;;;;;5.30;4.00;;;4.90;99.90;;;;;;5072991;28;20248;-67
2020/12/31 10:14:43;;;;;;;4.17;3.77;;;4.60;99.90;;;;;;5073017;28;20196;-68
2020/12/31 10:17:09;;;;;;;6.77;4.00;;;4.60;99.90;;;;;;5073366;28;20179;-67
2020/12/31 10:19:35;;;;;;;5.72;4.03;;;4.40;99.90;;;;;;5072930;28;20393;-67
2020/12/31 10:22:01;;;;;;;6.03;3.28;;;4.40;99.90;;;;;;5072911;28;20221;-68
2020/12/31 10:24:27;;;;;;;8.63;5.30;;;4.50;99.90;;;;;;5072908;28;20639;-69
2020/12/31 10:26:52;;;;;;;4.40;3.20;;;4.60;99.90;;;;;;5073111;28;20443;-67
2020/12/31 10:29:18;;;;;;;6.60;4.47;;;4.40;99.90;;;;;;5072863;28;20275;-68
2020/12/31 10:31:53;;;;;;;4.22;3.83;;;4.30;99.90;;;;;;5073001;28;20277;-68
2020/12/31 10:34:19;;;;;;;4.80;3.92;;;4.20;1.00;;;;;;5073321;28;20152;-67
2020/12/31 10:36:56;;;;;;;5.28;3.80;;;4.20;99.90;;;;;;5072634;28;20164;-67
2020/12/31 10:39:23;;;;;;;5.75;3.30;;;4.20;99.90;;;;;;5072810;28;20187;-68
2020/12/31 10:41:50;;;;;;;4.13;3.40;;;4.20;99.90;;;;;;5071465;28;20176;-66
2020/12/31 10:44:17;;;;;;;5.03;3.17;;;4.30;99.90;;;;;;5073069;28;20632;-67
2020/12/31 10:46:42;;;;;;;4.78;2.95;;;4.20;99.90;;;;;;5072826;28;20539;-67
2020/12/31 10:49:08;;;;;;;7.57;4.30;;;4.30;99.90;;;;;;5072745;28;20215;-67
2020/12/31 10:51:39;;;;;;;4.60;3.53;;;4.20;99.90;;;;;;5075140;28;20589;-67
2020/12/31 10:54:05;;;;;;;4.75;3.70;;;4.10;99.90;;;;;;5077358;28;20398;-67
2020/12/31 10:56:31;;;;;;;5.13;4.40;;;4.20;99.90;;;;;;5076807;28;20579;-67
2020/12/31 10:58:57;;;;;;;5.07;2.90;;;4.20;99.90;;;;;;5077047;28;20188;-68
2020/12/31 11:01:23;;;;;;;4.20;2.85;;;4.00;99.90;;;;;;5076981;28;20397;-68
2020/12/31 11:03:49;;;;;;;3.57;2.50;;;4.00;99.90;;;;;;5076549;28;20213;-67
2020/12/31 11:06:21;;;;;;;5.27;3.13;;;4.10;99.90;;;;;;5076744;28;20172;-66
2020/12/31 11:08:47;;;;;;;3.22;2.85;;;4.20;99.90;;;;;;5076648;28;20397;-67
2020/12/31 11:11:27;;;;;;;4.80;3.15;;;4.10;99.90;;;;;;5076532;28;20192;-67
2020/12/31 11:13:54;;;;;;;3.47;3.10;;;4.20;99.90;;;;;;5076735;28;20210;-67
2020/12/31 11:16:19;;;;;;;3.88;2.97;;;4.20;99.90;;;;;;5076952;28;20186;-68
2020/12/31 11:18:46;;;;;;;5.37;3.60;;;4.30;99.90;;;;;;5076151;28;20184;-68
2020/12/31 11:21:18;;;;;;;4.43;2.42;;;4.40;99.90;;;;;;5076679;28;20411;-66
2020/12/31 11:23:44;;;;;;;3.28;2.70;;;4.20;99.90;;;;;;5076324;28;20518;-67
2020/12/31 11:26:11;;;;;;;4.07;2.80;;;4.30;99.90;;;;;;5076183;28;20183;-67
2020/12/31 11:28:37;;;;;;;3.55;2.88;;;4.40;99.90;;;;;;5076122;28;20191;-67
2020/12/31 11:31:03;;;;;;;4.28;3.00;;;4.70;99.90;;;;;;5074915;28;20200;-68
2020/12/31 11:33:28;;;;;;;5.50;3.03;;;4.80;99.90;;;;;;5076509;28;20245;-67
2020/12/31 11:35:54;;;;;;;3.10;2.30;;;4.60;99.90;;;;;;5076268;28;20164;-67
2020/12/31 11:38:19;;;;;;;3.50;2.87;;;4.80;99.90;;;;;;5076018;28;20168;-67
2020/12/31 11:40:45;;;;;;;4.27;2.80;;;4.70;99.90;;;;;;5075921;28;20570;-69
2020/12/31 11:43:11;;;;;;;3.00;2.47;;;4.90;99.90;;;;;;5076037;28;20222;-66
2020/12/31 11:45:36;;;;;;;3.90;3.13;;;4.80;99.90;;;;;;5076332;28;20194;-67
2020/12/31 11:48:02;;;;;;;4.90;3.93;;;5.00;99.90;;;;;;5076011;28;20209;-67
2020/12/31 11:50:27;;;;;;;3.43;3.13;;;5.10;99.90;;;;;;5075656;28;20621;-68
2020/12/31 11:52:53;;;;;;;4.00;2.60;;;5.30;99.90;;;;;;5075933;28;20227;-68
2020/12/31 11:55:19;;;;;;;3.57;2.87;;;5.10;99.90;;;;;;5075692;28;20175;-67
2020/12/31 11:57:44;;;;;;;2.67;2.20;;;5.00;99.90;;;;;;5075811;28;20169;-67
2020/12/31 12:00:10;;;;;;;3.20;2.50;;;5.20;99.90;;;;;;5075650;28;20487;-68
2020/12/31 12:02:36;;;;;;;3.58;2.28;;;5.10;99.90;;;;;;5075547;28;20173;-68
2020/12/31 12:05:02;;;;;;;3.23;2.83;;;5.20;99.90;;;;;;5075596;28;20168;-68
2020/12/31 12:07:27;;;;;;;3.33;2.80;;;5.20;99.90;;;;;;5075905;28;20207;-67
2020/12/31 12:09:53;;;;;;;3.03;2.03;;;5.30;99.90;;;;;;5075345;28;20541;-67
2020/12/31 12:12:19;;;;;;;3.13;2.83;;;5.20;99.90;;;;;;5075328;28;20727;-66
2020/12/31 12:14:45;;;;;;;2.33;2.10;;;4.90;99.90;;;;;;5075440;28;20160;-66
2020/12/31 12:17:10;;;;;;;5.40;3.47;;;4.90;99.90;;;;;;5075661;28;20194;-67
2020/12/31 12:19:36;;;;;;;3.23;2.47;;;4.80;99.90;;;;;;5073996;28;20454;-66
2020/12/31 12:22:02;;;;;;;3.20;2.40;;;4.90;99.90;;;;;;5075549;28;20172;-67
2020/12/31 12:24:28;;;;;;;2.50;2.07;;;4.90;99.90;;;;;;5075397;28;20172;-66
2020/12/31 12:26:54;;;;;;;3.67;2.40;;;4.70;99.90;;;;;;5075161;28;20180;-67
2020/12/31 12:29:20;;;;;;;2.80;2.60;;;4.70;99.90;;;;;;5075435;28;20228;-67
2020/12/31 12:31:46;;;;;;;3.07;2.43;;;4.80;99.90;;;;;;5074904;28;20219;-67
2020/12/31 12:34:11;;;;;;;2.60;2.27;;;4.90;99.90;;;;;;5075057;28;20608;-67
2020/12/31 12:36:37;;;;;;;3.40;2.67;;;5.20;99.90;;;;;;5074875;28;20202;-67
2020/12/31 12:39:04;;;;;;;3.03;2.37;;;5.20;99.90;;;;;;5074872;28;20189;-67
2020/12/31 12:41:30;;;;;;;3.03;2.65;;;5.00;99.90;;;;;;5074723;28;20221;-67
2020/12/31 12:43:55;;;;;;;4.40;2.20;;;5.00;99.90;;;;;;5074910;28;20251;-67
2020/12/31 12:46:21;;;;;;;4.03;2.87;;;5.10;99.90;;;;;;5074916;28;20258;-67
2020/12/31 12:48:47;;;;;;;2.17;1.80;;;5.10;99.90;;;;;;5074524;28;20208;-67
2020/12/31 12:51:12;;;;;;;3.80;2.10;;;5.10;99.90;;;;;;5073232;28;20200;-66
2020/12/31 12:53:38;;;;;;;3.13;2.43;;;5.00;99.90;;;;;;5075078;28;20625;-66
2020/12/31 12:56:05;;;;;;;3.75;2.78;;;5.30;99.90;;;;;;5074623;28;20263;-67
2020/12/31 12:58:31;;;;;;;4.90;3.10;;;5.40;99.90;;;;;;5074761;28;20164;-66
2020/12/31 13:00:57;;;;;;;2.72;2.10;;;5.30;99.90;;;;;;5074784;28;20200;-67
2020/12/31 13:03:23;;;;;;;2.67;2.43;;;5.30;99.90;;;;;;5074614;28;20552;-68